This demonstration page uses our WeatherBlox Daily Observations layout. Learn more.

41.55636, -103.73856

Hourly Observations for October 9, 2019

Temp ( °F °C ) Dew Point ( °F °C ) Humidity (%) Winds ( mph kmh ) Pressure ( in mb ) Visibility ( mi km ) Precip ( " mm )
12:58 am 00:58 Clear 71 21.7 14 -10.1 11 11 Calm 29.7 1006 10 16.0934 0 0
1:58 am 01:58 Clear 56 13.1 15 -9.5 20 20 SSW 6 9 29.75 1008 10 16.0934 0 0
2:58 am 02:58 Clear 52 11.3 17 -8.2 25 25 SSW 6 9 29.73 1007 10 16.0934 0 0
3:58 am 03:58 Clear 55 12.7 16 -8.7 22 22 SSW 6 9 29.68 1005 10 16.0934 0 0
4:58 am 04:58 Clear 56 13.1 12 -11.1 18 18 SSW 6 9 29.67 1005 10 16.0934 0 0
5:58 am 05:58 Clear 50 10.2 13 -10.4 23 23 NNW 3 6 29.67 1005 10 16.0934 0 0
6:58 am 06:58 Mostly Clear 55 12.7 10 -12 17 17 W 8 13 29.64 1004 10 16.0934 0 0
7:58 am 07:58 Clear 53 11.9 11 -11.6 18 18 NW 7 11 29.63 1003 10 16.0934 0 0
8:58 am 08:58 Clear 55 13 8 -13.4 15 15 WSW 9 15 29.6 1002 10 16.0934 0 0
9:58 am 09:58 Clear 54 12 10 -12.2 17 17 SW 8 13 29.61 1003 10 16.0934 0 0
10:58 am 10:58 Clear 52 11.2 10 -12.3 18 18 Calm 29.63 1003 10 16.0934 0 0
11:58 am 11:58 Clear 54 12.3 9 -12.6 16 16 Calm 29.62 1003 10 16.0934 0 0
12:58 pm 12:58 Clear 43 6.3 17 -8.6 34 34 SSW 9 15 29.65 1004 10 16.0934 0 0
1:58 pm 13:58 Sunny 45 7.4 19 -7.4 34 34 SW 5 7 29.68 1005 10 16.0934 0 0
2:58 pm 14:58 Sunny 51 10.7 19 -7.4 28 28 NNE 7 11 29.69 1006 10 16.0934 0 0
4:58 pm 16:58 Sunny 56 13.1 29 -1.5 37 37 NE 8 13 29.7 1006 10 16.0934 0 0
5:58 pm 17:58 Sunny 56 13.3 33 0.6 42 42 NE 12 19 29.7 1006 10 16.0934 0 0
6:58 pm 18:58 Sunny 57 14.1 33 0.8 41 41 NE 10 17 29.67 1005 10 16.0934 0 0
7:58 pm 19:58 Sunny 54 12.1 36 2 50 50 NE 20 31 29.68 1005 10 16.0934 0 0
8:58 pm 20:58 Sunny 51 10.3 34 1.3 54 54 NE 17 28 29.7 1006 10 16.0934 0 0
9:58 pm 21:58 Mostly Cloudy 46 8 34 1 62 62 NE 18 30 29.74 1007 10 16.0934 0 0
10:58 pm 22:58 Cloudy 42 5.6 32 -0.1 67 67 NNE 16 26 29.79 1009 10 16.0934 0 0
11:58 pm 23:58 Cloudy 40 4.2 31 -0.3 73 73 NNE 14 22 29.85 1011 10 16.0934 0 0

Powered by AerisWeather